sensor_id;sensor_type;location;lat;lon;timestamp;temperature;humidity
40454;DHT22;26160;51.858;4.398;2024-03-02T03:54:27;6.80;99.90
40454;DHT22;26160;51.858;4.398;2024-03-02T04:10:23;6.70;99.90
40454;DHT22;26160;51.858;4.398;2024-03-02T04:13:19;6.70;99.90
40454;DHT22;26160;51.858;4.398;2024-03-02T04:16:17;6.60;99.90
40454;DHT22;26160;51.858;4.398;2024-03-02T04:30:05;6.70;99.90
40454;DHT22;26160;51.858;4.398;2024-03-02T04:33:08;6.70;99.90
40454;DHT22;26160;51.858;4.398;2024-03-02T04:36:32;6.70;99.90
40454;DHT22;26160;51.858;4.398;2024-03-02T04:39:07;6.60;99.90
40454;DHT22;26160;51.858;4.398;2024-03-02T04:41:39;6.60;99.90
40454;DHT22;26160;51.858;4.398;2024-03-02T04:44:12;6.70;99.90
40454;DHT22;26160;51.858;4.398;2024-03-02T04:46:58;6.60;99.90
40454;DHT22;26160;51.858;4.398;2024-03-02T04:49:49;6.60;99.90
40454;DHT22;26160;51.858;4.398;2024-03-02T04:52:30;6.60;99.90
40454;DHT22;26160;51.858;4.398;2024-03-02T04:55:26;6.60;99.90
40454;DHT22;26160;51.858;4.398;2024-03-02T04:57:56;6.60;99.90
40454;DHT22;26160;51.858;4.398;2024-03-02T05:00:27;6.60;99.90
40454;DHT22;26160;51.858;4.398;2024-03-02T05:02:56;6.50;99.90
40454;DHT22;26160;51.858;4.398;2024-03-02T05:05:27;6.50;99.90
40454;DHT22;26160;51.858;4.398;2024-03-02T05:08:00;6.50;99.90
40454;DHT22;26160;51.858;4.398;2024-03-02T05:10:28;6.50;99.90
40454;DHT22;26160;51.858;4.398;2024-03-02T05:12:57;6.50;99.90
40454;DHT22;26160;51.858;4.398;2024-03-02T05:15:26;6.40;99.90
40454;DHT22;26160;51.858;4.398;2024-03-02T05:17:56;6.40;99.90
40454;DHT22;26160;51.858;4.398;2024-03-02T05:20:25;6.30;99.90
40454;DHT22;26160;51.858;4.398;2024-03-02T05:22:52;6.30;99.90
40454;DHT22;26160;51.858;4.398;2024-03-02T05:25:18;6.30;99.90
40454;DHT22;26160;51.858;4.398;2024-03-02T05:27:45;6.40;99.90
40454;DHT22;26160;51.858;4.398;2024-03-02T05:30:14;6.40;99.90
40454;DHT22;26160;51.858;4.398;2024-03-02T05:32:41;6.40;99.90
40454;DHT22;26160;51.858;4.398;2024-03-02T05:35:12;6.40;99.90
40454;DHT22;26160;51.858;4.398;2024-03-02T05:37:38;6.50;99.90
40454;DHT22;26160;51.858;4.398;2024-03-02T05:40:06;6.50;99.90
40454;DHT22;26160;51.858;4.398;2024-03-02T05:42:32;6.50;99.90
40454;DHT22;26160;51.858;4.398;2024-03-02T05:44:59;6.50;99.90
40454;DHT22;26160;51.858;4.398;2024-03-02T05:47:25;6.60;99.90
40454;DHT22;26160;51.858;4.398;2024-03-02T05:49:51;6.60;99.90
40454;DHT22;26160;51.858;4.398;2024-03-02T05:52:17;6.60;99.90
40454;DHT22;26160;51.858;4.398;2024-03-02T05:54:43;6.60;99.90
40454;DHT22;26160;51.858;4.398;2024-03-02T05:57:09;6.50;99.90
40454;DHT22;26160;51.858;4.398;2024-03-02T05:59:54;6.50;99.90
40454;DHT22;26160;51.858;4.398;2024-03-02T06:02:20;6.50;99.90
40454;DHT22;26160;51.858;4.398;2024-03-02T06:04:46;6.50;99.90
40454;DHT22;26160;51.858;4.398;2024-03-02T06:07:12;6.60;99.90
40454;DHT22;26160;51.858;4.398;2024-03-02T06:09:38;6.60;99.90
40454;DHT22;26160;51.858;4.398;2024-03-02T06:12:05;6.60;99.90
40454;DHT22;26160;51.858;4.398;2024-03-02T06:14:31;6.50;99.90
40454;DHT22;26160;51.858;4.398;2024-03-02T06:16:57;6.60;99.90
40454;DHT22;26160;51.858;4.398;2024-03-02T06:19:23;6.60;99.90
40454;DHT22;26160;51.858;4.398;2024-03-02T06:21:53;6.60;99.90
40454;DHT22;26160;51.858;4.398;2024-03-02T06:24:19;6.60;99.90
40454;DHT22;26160;51.858;4.398;2024-03-02T06:26:45;6.50;99.90
40454;DHT22;26160;51.858;4.398;2024-03-02T06:29:11;6.50;99.90
40454;DHT22;26160;51.858;4.398;2024-03-02T06:31:37;6.50;99.90
40454;DHT22;26160;51.858;4.398;2024-03-02T06:34:04;6.50;99.90
40454;DHT22;26160;51.858;4.398;2024-03-02T06:36:30;6.40;99.90
40454;DHT22;26160;51.858;4.398;2024-03-02T06:38:56;6.40;99.90
40454;DHT22;26160;51.858;4.398;2024-03-02T06:41:23;6.30;99.90
40454;DHT22;26160;51.858;4.398;2024-03-02T06:43:49;6.20;99.90
40454;DHT22;26160;51.858;4.398;2024-03-02T06:46:15;6.20;99.90
40454;DHT22;26160;51.858;4.398;2024-03-02T06:48:43;6.10;99.90
40454;DHT22;26160;51.858;4.398;2024-03-02T06:51:10;6.10;99.90
40454;DHT22;26160;51.858;4.398;2024-03-02T06:53:36;6.10;99.90
40454;DHT22;26160;51.858;4.398;2024-03-02T06:56:03;6.10;99.90
40454;DHT22;26160;51.858;4.398;2024-03-02T06:58:30;6.10;99.90
40454;DHT22;26160;51.858;4.398;2024-03-02T07:00:56;6.10;99.90
40454;DHT22;26160;51.858;4.398;2024-03-02T07:03:22;6.10;99.90
40454;DHT22;26160;51.858;4.398;2024-03-02T07:05:48;6.00;99.90
40454;DHT22;26160;51.858;4.398;2024-03-02T07:08:14;6.00;99.90
40454;DHT22;26160;51.858;4.398;2024-03-02T07:10:41;6.00;99.90
40454;DHT22;26160;51.858;4.398;2024-03-02T07:13:07;6.00;99.90
40454;DHT22;26160;51.858;4.398;2024-03-02T07:15:35;6.00;99.90
40454;DHT22;26160;51.858;4.398;2024-03-02T07:18:33;5.90;99.90
40454;DHT22;26160;51.858;4.398;2024-03-02T07:20:59;6.00;99.90
40454;DHT22;26160;51.858;4.398;2024-03-02T07:23:27;6.00;99.90
40454;DHT22;26160;51.858;4.398;2024-03-02T07:25:53;5.90;99.90
40454;DHT22;26160;51.858;4.398;2024-03-02T07:28:23;5.90;99.90
40454;DHT22;26160;51.858;4.398;2024-03-02T07:30:59;6.00;99.90
40454;DHT22;26160;51.858;4.398;2024-03-02T07:33:26;6.00;99.90
40454;DHT22;26160;51.858;4.398;2024-03-02T07:35:53;6.00;99.90
40454;DHT22;26160;51.858;4.398;2024-03-02T07:38:19;6.10;99.90
40454;DHT22;26160;51.858;4.398;2024-03-02T07:40:46;6.20;99.90
40454;DHT22;26160;51.858;4.398;2024-03-02T07:43:12;6.20;99.90
40454;DHT22;26160;51.858;4.398;2024-03-02T07:45:38;6.20;99.90
40454;DHT22;26160;51.858;4.398;2024-03-02T07:48:05;6.30;99.90
40454;DHT22;26160;51.858;4.398;2024-03-02T07:50:31;6.30;99.90
40454;DHT22;26160;51.858;4.398;2024-03-02T07:52:57;6.30;99.90
40454;DHT22;26160;51.858;4.398;2024-03-02T07:55:23;6.40;99.90
40454;DHT22;26160;51.858;4.398;2024-03-02T07:57:51;6.40;99.90
40454;DHT22;26160;51.858;4.398;2024-03-02T08:00:17;6.40;99.90
40454;DHT22;26160;51.858;4.398;2024-03-02T08:02:43;6.50;99.90
40454;DHT22;26160;51.858;4.398;2024-03-02T08:05:09;6.50;99.90
40454;DHT22;26160;51.858;4.398;2024-03-02T08:07:36;6.50;99.90
40454;DHT22;26160;51.858;4.398;2024-03-02T08:10:02;6.60;99.90
40454;DHT22;26160;51.858;4.398;2024-03-02T08:12:28;6.60;99.90
40454;DHT22;26160;51.858;4.398;2024-03-02T08:14:54;6.70;99.90
40454;DHT22;26160;51.858;4.398;2024-03-02T08:17:20;6.70;99.90
40454;DHT22;26160;51.858;4.398;2024-03-02T08:19:46;6.80;99.90
40454;DHT22;26160;51.858;4.398;2024-03-02T08:22:17;6.80;99.90
40454;DHT22;26160;51.858;4.398;2024-03-02T08:24:43;6.80;99.90
40454;DHT22;26160;51.858;4.398;2024-03-02T08:27:09;6.80;99.90
40454;DHT22;26160;51.858;4.398;2024-03-02T08:29:35;6.90;99.90
40454;DHT22;26160;51.858;4.398;2024-03-02T08:32:02;6.90;99.90
40454;DHT22;26160;51.858;4.398;2024-03-02T08:34:28;7.00;99.90
40454;DHT22;26160;51.858;4.398;2024-03-02T08:36:54;7.00;99.90
40454;DHT22;26160;51.858;4.398;2024-03-02T08:39:20;7.10;99.90
40454;DHT22;26160;51.858;4.398;2024-03-02T08:41:47;7.10;99.90
40454;DHT22;26160;51.858;4.398;2024-03-02T08:44:14;7.10;99.90
40454;DHT22;26160;51.858;4.398;2024-03-02T08:46:40;7.20;99.90
40454;DHT22;26160;51.858;4.398;2024-03-02T08:49:07;7.30;95.10
40454;DHT22;26160;51.858;4.398;2024-03-02T08:51:33;7.30;97.20
40454;DHT22;26160;51.858;4.398;2024-03-02T08:54:00;7.30;94.60
40454;DHT22;26160;51.858;4.398;2024-03-02T08:56:26;7.40;91.70
40454;DHT22;26160;51.858;4.398;2024-03-02T08:58:52;7.50;90.10
40454;DHT22;26160;51.858;4.398;2024-03-02T09:01:19;7.50;73.00
40454;DHT22;26160;51.858;4.398;2024-03-02T09:03:48;7.60;86.40
40454;DHT22;26160;51.858;4.398;2024-03-02T09:06:17;7.70;77.50
40454;DHT22;26160;51.858;4.398;2024-03-02T09:08:45;7.80;65.10
40454;DHT22;26160;51.858;4.398;2024-03-02T09:11:11;7.80;45.50
40454;DHT22;26160;51.858;4.398;2024-03-02T09:13:38;7.80;36.40
40454;DHT22;26160;51.858;4.398;2024-03-02T09:16:04;7.80;40.40
40454;DHT22;26160;51.858;4.398;2024-03-02T09:18:31;7.90;36.10
40454;DHT22;26160;51.858;4.398;2024-03-02T09:20:57;8.00;26.90
40454;DHT22;26160;51.858;4.398;2024-03-02T09:23:23;8.10;33.40
40454;DHT22;26160;51.858;4.398;2024-03-02T09:25:49;8.10;15.80
40454;DHT22;26160;51.858;4.398;2024-03-02T09:28:16;8.20;22.20
40454;DHT22;26160;51.858;4.398;2024-03-02T09:30:42;8.30;14.10
40454;DHT22;26160;51.858;4.398;2024-03-02T09:33:08;8.30;9.40
40454;DHT22;26160;51.858;4.398;2024-03-02T09:35:34;8.40;12.30
40454;DHT22;26160;51.858;4.398;2024-03-02T09:38:01;8.40;7.00
40454;DHT22;26160;51.858;4.398;2024-03-02T09:40:27;8.50;2.30
40454;DHT22;26160;51.858;4.398;2024-03-02T09:42:54;8.60;1.00
40454;DHT22;26160;51.858;4.398;2024-03-02T09:45:25;8.70;1.00
40454;DHT22;26160;51.858;4.398;2024-03-02T09:47:52;8.80;1.00
40454;DHT22;26160;51.858;4.398;2024-03-02T09:50:18;8.90;1.00
40454;DHT22;26160;51.858;4.398;2024-03-02T09:52:48;8.90;1.00
40454;DHT22;26160;51.858;4.398;2024-03-02T09:55:18;8.90;1.00
40454;DHT22;26160;51.858;4.398;2024-03-02T09:57:46;9.10;1.00
40454;DHT22;26160;51.858;4.398;2024-03-02T10:00:12;9.20;1.00
40454;DHT22;26160;51.858;4.398;2024-03-02T10:02:43;9.20;1.00
40454;DHT22;26160;51.858;4.398;2024-03-02T10:05:10;9.20;1.00
40454;DHT22;26160;51.858;4.398;2024-03-02T10:07:38;9.30;1.00
40454;DHT22;26160;51.858;4.398;2024-03-02T10:10:15;9.30;1.00
40454;DHT22;26160;51.858;4.398;2024-03-02T10:12:42;9.50;1.00
40454;DHT22;26160;51.858;4.398;2024-03-02T10:15:08;9.70;1.00
40454;DHT22;26160;51.858;4.398;2024-03-02T10:17:35;9.70;1.00
40454;DHT22;26160;51.858;4.398;2024-03-02T10:20:24;9.90;1.00
40454;DHT22;26160;51.858;4.398;2024-03-02T10:22:51;10.00;1.00
40454;DHT22;26160;51.858;4.398;2024-03-02T10:25:30;10.10;1.00
40454;DHT22;26160;51.858;4.398;2024-03-02T10:27:58;10.00;1.00
40454;DHT22;26160;51.858;4.398;2024-03-02T10:30:28;10.00;1.00
40454;DHT22;26160;51.858;4.398;2024-03-02T10:32:55;10.00;1.00
40454;DHT22;26160;51.858;4.398;2024-03-02T10:35:22;9.90;1.00
40454;DHT22;26160;51.858;4.398;2024-03-02T10:37:50;10.00;1.00
40454;DHT22;26160;51.858;4.398;2024-03-02T10:40:16;10.30;1.00
40454;DHT22;26160;51.858;4.398;2024-03-02T10:42:43;10.10;1.00
40454;DHT22;26160;51.858;4.398;2024-03-02T10:45:12;9.80;1.00
40454;DHT22;26160;51.858;4.398;2024-03-02T10:47:44;9.80;1.00
40454;DHT22;26160;51.858;4.398;2024-03-02T10:50:10;9.70;1.00
40454;DHT22;26160;51.858;4.398;2024-03-02T10:52:40;9.70;1.00
40454;DHT22;26160;51.858;4.398;2024-03-02T10:55:07;9.80;1.00
40454;DHT22;26160;51.858;4.398;2024-03-02T10:57:52;9.80;1.00
40454;DHT22;26160;51.858;4.398;2024-03-02T11:00:25;9.90;1.00
40454;DHT22;26160;51.858;4.398;2024-03-02T11:03:05;9.90;1.00
40454;DHT22;26160;51.858;4.398;2024-03-02T11:05:34;10.00;1.00
40454;DHT22;26160;51.858;4.398;2024-03-02T11:08:06;10.10;1.00
40454;DHT22;26160;51.858;4.398;2024-03-02T11:13:09;10.20;1.00
40454;DHT22;26160;51.858;4.398;2024-03-02T11:15:35;10.30;1.00
40454;DHT22;26160;51.858;4.398;2024-03-02T11:18:06;10.30;1.00
40454;DHT22;26160;51.858;4.398;2024-03-02T11:20:41;10.40;1.00
40454;DHT22;26160;51.858;4.398;2024-03-02T11:23:08;10.50;1.00
40454;DHT22;26160;51.858;4.398;2024-03-02T11:25:35;10.60;1.00
40454;DHT22;26160;51.858;4.398;2024-03-02T11:28:03;10.80;1.00
40454;DHT22;26160;51.858;4.398;2024-03-02T11:33:07;10.90;1.00
40454;DHT22;26160;51.858;4.398;2024-03-02T11:35:37;10.90;1.00
40454;DHT22;26160;51.858;4.398;2024-03-02T11:38:04;11.20;1.00
40454;DHT22;26160;51.858;4.398;2024-03-02T11:40:32;11.60;1.00
40454;DHT22;26160;51.858;4.398;2024-03-02T11:43:02;11.50;1.00
40454;DHT22;26160;51.858;4.398;2024-03-02T11:45:29;11.70;99.90
40454;DHT22;26160;51.858;4.398;2024-03-02T11:47:59;11.80;99.90
40454;DHT22;26160;51.858;4.398;2024-03-02T11:50:42;12.00;99.90
40454;DHT22;26160;51.858;4.398;2024-03-02T11:53:10;12.20;1.00
40454;DHT22;26160;51.858;4.398;2024-03-02T11:55:39;12.30;1.00
40454;DHT22;26160;51.858;4.398;2024-03-02T11:58:13;12.10;1.00
40454;DHT22;26160;51.858;4.398;2024-03-02T12:00:39;12.10;1.00
40454;DHT22;26160;51.858;4.398;2024-03-02T12:03:08;11.90;1.00
40454;DHT22;26160;51.858;4.398;2024-03-02T12:05:35;11.80;1.00
40454;DHT22;26160;51.858;4.398;2024-03-02T12:08:06;11.90;99.90
40454;DHT22;26160;51.858;4.398;2024-03-02T12:10:33;11.90;99.90
40454;DHT22;26160;51.858;4.398;2024-03-02T12:13:03;11.80;1.00
40454;DHT22;26160;51.858;4.398;2024-03-02T12:15:34;11.70;99.90
40454;DHT22;26160;51.858;4.398;2024-03-02T12:18:01;11.90;99.90
40454;DHT22;26160;51.858;4.398;2024-03-02T12:20:29;12.10;1.00
40454;DHT22;26160;51.858;4.398;2024-03-02T12:22:58;12.10;1.00
40454;DHT22;26160;51.858;4.398;2024-03-02T12:25:25;12.20;1.00
40454;DHT22;26160;51.858;4.398;2024-03-02T12:27:54;12.30;1.00
40454;DHT22;26160;51.858;4.398;2024-03-02T12:30:22;12.40;1.00
40454;DHT22;26160;51.858;4.398;2024-03-02T12:32:48;12.50;99.90
40454;DHT22;26160;51.858;4.398;2024-03-02T12:35:15;12.10;1.00
40454;DHT22;26160;51.858;4.398;2024-03-02T12:37:48;12.20;1.00
40454;DHT22;26160;51.858;4.398;2024-03-02T12:40:17;12.20;1.00
40454;DHT22;26160;51.858;4.398;2024-03-02T12:42:45;12.30;1.00
40454;DHT22;26160;51.858;4.398;2024-03-02T12:45:12;12.50;99.90
40454;DHT22;26160;51.858;4.398;2024-03-02T12:47:42;12.60;99.90
40454;DHT22;26160;51.858;4.398;2024-03-02T12:50:09;12.40;87.20
40454;DHT22;26160;51.858;4.398;2024-03-02T12:52:35;12.60;1.00
40454;DHT22;26160;51.858;4.398;2024-03-02T12:55:04;12.50;99.90
40454;DHT22;26160;51.858;4.398;2024-03-02T12:57:34;12.40;1.00
40454;DHT22;26160;51.858;4.398;2024-03-02T13:00:05;12.40;99.90
40454;DHT22;26160;51.858;4.398;2024-03-02T13:02:42;12.30;1.00
40454;DHT22;26160;51.858;4.398;2024-03-02T13:05:09;12.40;68.80
40454;DHT22;26160;51.858;4.398;2024-03-02T13:07:38;12.50;1.00
40454;DHT22;26160;51.858;4.398;2024-03-02T13:10:05;12.40;1.00
40454;DHT22;26160;51.858;4.398;2024-03-02T13:12:33;12.50;1.00
40454;DHT22;26160;51.858;4.398;2024-03-02T13:15:02;12.30;1.00
40454;DHT22;26160;51.858;4.398;2024-03-02T13:17:29;12.20;1.00
40454;DHT22;26160;51.858;4.398;2024-03-02T13:19:57;12.10;1.00
40454;DHT22;26160;51.858;4.398;2024-03-02T13:22:24;12.20;1.00
40454;DHT22;26160;51.858;4.398;2024-03-02T13:24:51;12.30;1.00
40454;DHT22;26160;51.858;4.398;2024-03-02T13:27:18;12.50;1.00
40454;DHT22;26160;51.858;4.398;2024-03-02T13:29:46;12.50;1.00
40454;DHT22;26160;51.858;4.398;2024-03-02T13:32:14;12.50;1.00
40454;DHT22;26160;51.858;4.398;2024-03-02T13:34:40;12.60;99.90
40454;DHT22;26160;51.858;4.398;2024-03-02T13:37:10;12.60;1.00
40454;DHT22;26160;51.858;4.398;2024-03-02T13:39:36;12.50;1.00
40454;DHT22;26160;51.858;4.398;2024-03-02T13:42:09;12.50;99.90
40454;DHT22;26160;51.858;4.398;2024-03-02T13:44:37;12.60;93.70
40454;DHT22;26160;51.858;4.398;2024-03-02T13:47:04;12.70;1.00
40454;DHT22;26160;51.858;4.398;2024-03-02T13:49:31;12.70;13.30
40454;DHT22;26160;51.858;4.398;2024-03-02T13:52:03;12.80;82.70
40454;DHT22;26160;51.858;4.398;2024-03-02T13:54:30;12.90;1.00
40454;DHT22;26160;51.858;4.398;2024-03-02T13:56:57;13.00;1.00
40454;DHT22;26160;51.858;4.398;2024-03-02T13:59:26;12.80;1.00
40454;DHT22;26160;51.858;4.398;2024-03-02T14:01:53;12.60;1.00
40454;DHT22;26160;51.858;4.398;2024-03-02T14:04:19;12.50;99.90
40454;DHT22;26160;51.858;4.398;2024-03-02T14:06:45;12.70;1.00
40454;DHT22;26160;51.858;4.398;2024-03-02T14:09:12;12.80;99.90
40454;DHT22;26160;51.858;4.398;2024-03-02T14:11:38;13.10;99.90
40454;DHT22;26160;51.858;4.398;2024-03-02T14:14:04;13.20;99.90
40454;DHT22;26160;51.858;4.398;2024-03-02T14:16:31;13.40;99.90
40454;DHT22;26160;51.858;4.398;2024-03-02T14:18:57;13.40;1.00
40454;DHT22;26160;51.858;4.398;2024-03-02T14:21:25;13.40;1.00
40454;DHT22;26160;51.858;4.398;2024-03-02T14:23:51;13.30;99.90
40454;DHT22;26160;51.858;4.398;2024-03-02T14:26:17;13.30;99.90
40454;DHT22;26160;51.858;4.398;2024-03-02T14:28:44;13.20;99.90
40454;DHT22;26160;51.858;4.398;2024-03-02T14:31:13;13.10;80.80
40454;DHT22;26160;51.858;4.398;2024-03-02T14:33:39;12.90;99.90
40454;DHT22;26160;51.858;4.398;2024-03-02T14:36:05;12.70;99.90
40454;DHT22;26160;51.858;4.398;2024-03-02T14:38:32;12.70;99.90
40454;DHT22;26160;51.858;4.398;2024-03-02T14:40:58;12.70;99.90
40454;DHT22;26160;51.858;4.398;2024-03-02T14:43:24;12.70;99.90
40454;DHT22;26160;51.858;4.398;2024-03-02T14:45:50;12.80;99.90
40454;DHT22;26160;51.858;4.398;2024-03-02T14:48:16;12.80;99.90
40454;DHT22;26160;51.858;4.398;2024-03-02T14:50:43;12.80;99.90
40454;DHT22;26160;51.858;4.398;2024-03-02T14:53:09;12.70;99.90
40454;DHT22;26160;51.858;4.398;2024-03-02T14:55:35;12.70;99.90
40454;DHT22;26160;51.858;4.398;2024-03-02T14:58:02;12.80;99.90
40454;DHT22;26160;51.858;4.398;2024-03-02T15:00:28;12.70;99.90
40454;DHT22;26160;51.858;4.398;2024-03-02T15:02:55;12.70;47.50
40454;DHT22;26160;51.858;4.398;2024-03-02T15:05:21;12.60;99.90
40454;DHT22;26160;51.858;4.398;2024-03-02T15:07:47;12.70;99.90
40454;DHT22;26160;51.858;4.398;2024-03-02T15:10:13;12.70;99.90
40454;DHT22;26160;51.858;4.398;2024-03-02T15:12:40;12.70;1.00
40454;DHT22;26160;51.858;4.398;2024-03-02T15:15:06;12.70;1.00
40454;DHT22;26160;51.858;4.398;2024-03-02T15:17:32;12.80;1.00
40454;DHT22;26160;51.858;4.398;2024-03-02T15:19:58;12.90;99.90
40454;DHT22;26160;51.858;4.398;2024-03-02T15:22:25;13.00;99.90
40454;DHT22;26160;51.858;4.398;2024-03-02T15:24:51;13.00;99.90
40454;DHT22;26160;51.858;4.398;2024-03-02T15:27:17;13.00;1.00
40454;DHT22;26160;51.858;4.398;2024-03-02T15:29:43;13.00;99.90
40454;DHT22;26160;51.858;4.398;2024-03-02T15:32:09;13.00;99.90
40454;DHT22;26160;51.858;4.398;2024-03-02T15:34:35;13.00;99.90
40454;DHT22;26160;51.858;4.398;2024-03-02T15:37:02;13.00;99.90
40454;DHT22;26160;51.858;4.398;2024-03-02T15:39:29;12.90;1.00
40454;DHT22;26160;51.858;4.398;2024-03-02T15:41:55;12.90;99.90
40454;DHT22;26160;51.858;4.398;2024-03-02T15:44:21;12.90;99.90
40454;DHT22;26160;51.858;4.398;2024-03-02T15:46:48;12.80;99.90
40454;DHT22;26160;51.858;4.398;2024-03-02T15:49:14;12.80;99.90
40454;DHT22;26160;51.858;4.398;2024-03-02T15:51:40;12.70;99.90
40454;DHT22;26160;51.858;4.398;2024-03-02T15:54:12;12.70;99.90
40454;DHT22;26160;51.858;4.398;2024-03-02T15:56:38;12.70;99.90
40454;DHT22;26160;51.858;4.398;2024-03-02T15:59:05;12.70;99.90
40454;DHT22;26160;51.858;4.398;2024-03-02T16:01:31;12.70;99.90
40454;DHT22;26160;51.858;4.398;2024-03-02T16:03:58;12.60;99.90
40454;DHT22;26160;51.858;4.398;2024-03-02T16:06:24;12.60;1.00
40454;DHT22;26160;51.858;4.398;2024-03-02T16:08:50;12.60;1.00
40454;DHT22;26160;51.858;4.398;2024-03-02T16:11:17;12.50;1.00
40454;DHT22;26160;51.858;4.398;2024-03-02T16:13:43;12.50;1.00
40454;DHT22;26160;51.858;4.398;2024-03-02T16:16:11;12.50;1.00
40454;DHT22;26160;51.858;4.398;2024-03-02T16:18:37;12.50;1.00
40454;DHT22;26160;51.858;4.398;2024-03-02T16:21:03;12.40;1.00
40454;DHT22;26160;51.858;4.398;2024-03-02T16:23:33;12.40;1.00
40454;DHT22;26160;51.858;4.398;2024-03-02T16:25:59;12.40;1.00
40454;DHT22;26160;51.858;4.398;2024-03-02T16:28:25;12.40;1.00
40454;DHT22;26160;51.858;4.398;2024-03-02T16:30:51;12.30;1.00
40454;DHT22;26160;51.858;4.398;2024-03-02T16:33:19;12.30;1.00
40454;DHT22;26160;51.858;4.398;2024-03-02T16:35:45;12.20;1.00
40454;DHT22;26160;51.858;4.398;2024-03-02T16:38:14;12.20;1.00
40454;DHT22;26160;51.858;4.398;2024-03-02T16:40:40;12.10;1.00
40454;DHT22;26160;51.858;4.398;2024-03-02T16:43:06;12.10;1.00
40454;DHT22;26160;51.858;4.398;2024-03-02T16:45:33;12.00;1.00
40454;DHT22;26160;51.858;4.398;2024-03-02T16:47:59;12.00;1.00
40454;DHT22;26160;51.858;4.398;2024-03-02T16:50:25;12.00;1.00
40454;DHT22;26160;51.858;4.398;2024-03-02T16:52:51;12.10;1.00
40454;DHT22;26160;51.858;4.398;2024-03-02T16:55:17;12.00;1.00
40454;DHT22;26160;51.858;4.398;2024-03-02T16:57:44;11.90;1.00
40454;DHT22;26160;51.858;4.398;2024-03-02T17:00:11;11.90;1.00
40454;DHT22;26160;51.858;4.398;2024-03-02T17:02:37;11.90;1.00
40454;DHT22;26160;51.858;4.398;2024-03-02T17:05:04;11.90;1.00
40454;DHT22;26160;51.858;4.398;2024-03-02T17:07:30;11.90;1.00
40454;DHT22;26160;51.858;4.398;2024-03-02T17:09:57;11.80;1.00
40454;DHT22;26160;51.858;4.398;2024-03-02T17:12:24;11.90;1.00
40454;DHT22;26160;51.858;4.398;2024-03-02T17:14:50;12.00;1.00
40454;DHT22;26160;51.858;4.398;2024-03-02T17:17:16;12.00;1.00
40454;DHT22;26160;51.858;4.398;2024-03-02T17:19:43;12.00;1.00
40454;DHT22;26160;51.858;4.398;2024-03-02T17:22:10;12.00;1.00
40454;DHT22;26160;51.858;4.398;2024-03-02T17:24:37;12.00;1.00
40454;DHT22;26160;51.858;4.398;2024-03-02T17:27:03;12.00;1.00
40454;DHT22;26160;51.858;4.398;2024-03-02T17:29:29;11.90;1.00
40454;DHT22;26160;51.858;4.398;2024-03-02T17:31:57;11.80;1.00
40454;DHT22;26160;51.858;4.398;2024-03-02T17:34:24;11.80;1.00
40454;DHT22;26160;51.858;4.398;2024-03-02T17:36:50;11.70;1.00
40454;DHT22;26160;51.858;4.398;2024-03-02T17:39:16;11.70;1.00
40454;DHT22;26160;51.858;4.398;2024-03-02T17:41:42;11.70;1.00
40454;DHT22;26160;51.858;4.398;2024-03-02T17:44:08;11.60;1.00
40454;DHT22;26160;51.858;4.398;2024-03-02T17:46:36;11.70;1.00
40454;DHT22;26160;51.858;4.398;2024-03-02T17:49:02;11.70;1.00
40454;DHT22;26160;51.858;4.398;2024-03-02T17:51:28;11.60;1.00
40454;DHT22;26160;51.858;4.398;2024-03-02T17:53:54;11.60;1.00
40454;DHT22;26160;51.858;4.398;2024-03-02T17:56:20;11.50;1.00
40454;DHT22;26160;51.858;4.398;2024-03-02T17:58:47;11.50;1.00
40454;DHT22;26160;51.858;4.398;2024-03-02T18:01:14;11.40;1.00
40454;DHT22;26160;51.858;4.398;2024-03-02T18:03:43;11.40;1.00
40454;DHT22;26160;51.858;4.398;2024-03-02T18:06:10;11.40;1.00
40454;DHT22;26160;51.858;4.398;2024-03-02T18:08:38;11.50;1.00
40454;DHT22;26160;51.858;4.398;2024-03-02T18:11:04;11.60;1.00
40454;DHT22;26160;51.858;4.398;2024-03-02T18:13:32;11.60;1.00
40454;DHT22;26160;51.858;4.398;2024-03-02T18:16:03;11.70;1.00
40454;DHT22;26160;51.858;4.398;2024-03-02T18:18:29;11.80;1.00
40454;DHT22;26160;51.858;4.398;2024-03-02T18:20:55;11.80;1.00
40454;DHT22;26160;51.858;4.398;2024-03-02T18:23:21;11.80;1.00
40454;DHT22;26160;51.858;4.398;2024-03-02T18:25:47;11.80;1.00
40454;DHT22;26160;51.858;4.398;2024-03-02T18:28:14;11.80;1.00
40454;DHT22;26160;51.858;4.398;2024-03-02T18:30:40;11.80;1.00
40454;DHT22;26160;51.858;4.398;2024-03-02T18:33:07;11.80;1.00
40454;DHT22;26160;51.858;4.398;2024-03-02T18:35:34;11.90;1.00
40454;DHT22;26160;51.858;4.398;2024-03-02T18:38:02;11.90;1.00
40454;DHT22;26160;51.858;4.398;2024-03-02T18:40:28;11.90;1.00
40454;DHT22;26160;51.858;4.398;2024-03-02T18:42:54;11.90;1.00
40454;DHT22;26160;51.858;4.398;2024-03-02T18:45:20;11.90;1.00
40454;DHT22;26160;51.858;4.398;2024-03-02T18:47:47;11.90;1.00
40454;DHT22;26160;51.858;4.398;2024-03-02T18:50:13;11.90;1.00
40454;DHT22;26160;51.858;4.398;2024-03-02T18:52:39;11.90;1.00
40454;DHT22;26160;51.858;4.398;2024-03-02T18:55:06;11.80;1.00
40454;DHT22;26160;51.858;4.398;2024-03-02T18:57:34;11.80;1.00
40454;DHT22;26160;51.858;4.398;2024-03-02T19:00:00;11.80;1.00
40454;DHT22;26160;51.858;4.398;2024-03-02T19:02:29;11.70;1.00
40454;DHT22;26160;51.858;4.398;2024-03-02T19:04:57;11.70;1.00
40454;DHT22;26160;51.858;4.398;2024-03-02T19:07:23;11.70;1.00
40454;DHT22;26160;51.858;4.398;2024-03-02T19:09:52;11.60;1.00
40454;DHT22;26160;51.858;4.398;2024-03-02T19:12:18;11.60;1.00
40454;DHT22;26160;51.858;4.398;2024-03-02T19:14:44;11.60;1.00
40454;DHT22;26160;51.858;4.398;2024-03-02T19:17:16;11.70;1.00
40454;DHT22;26160;51.858;4.398;2024-03-02T19:19:43;11.60;1.00
40454;DHT22;26160;51.858;4.398;2024-03-02T19:22:09;11.60;1.00
40454;DHT22;26160;51.858;4.398;2024-03-02T19:24:36;11.60;1.00
40454;DHT22;26160;51.858;4.398;2024-03-02T19:27:04;11.60;1.00
40454;DHT22;26160;51.858;4.398;2024-03-02T19:29:30;11.70;1.00
40454;DHT22;26160;51.858;4.398;2024-03-02T19:31:57;11.70;1.00
40454;DHT22;26160;51.858;4.398;2024-03-02T19:34:24;11.70;1.00
40454;DHT22;26160;51.858;4.398;2024-03-02T19:36:50;11.60;1.00
40454;DHT22;26160;51.858;4.398;2024-03-02T19:39:19;11.60;1.00
40454;DHT22;26160;51.858;4.398;2024-03-02T19:41:58;11.60;1.00
40454;DHT22;26160;51.858;4.398;2024-03-02T19:44:27;11.60;1.00
40454;DHT22;26160;51.858;4.398;2024-03-02T19:47:10;11.60;1.00
40454;DHT22;26160;51.858;4.398;2024-03-02T19:49:50;11.50;1.00
40454;DHT22;26160;51.858;4.398;2024-03-02T19:52:16;11.50;1.00
40454;DHT22;26160;51.858;4.398;2024-03-02T19:54:45;11.50;1.00
40454;DHT22;26160;51.858;4.398;2024-03-02T19:57:24;11.40;1.00
40454;DHT22;26160;51.858;4.398;2024-03-02T19:59:51;11.40;1.00
40454;DHT22;26160;51.858;4.398;2024-03-02T20:02:17;11.50;1.00
40454;DHT22;26160;51.858;4.398;2024-03-02T20:04:46;11.50;1.00
40454;DHT22;26160;51.858;4.398;2024-03-02T20:07:14;11.60;1.00
40454;DHT22;26160;51.858;4.398;2024-03-02T20:09:44;11.50;1.00
40454;DHT22;26160;51.858;4.398;2024-03-02T20:12:16;11.50;1.00
40454;DHT22;26160;51.858;4.398;2024-03-02T20:14:47;11.50;1.00